sensor_id;sensor_type;location;lat;lon;timestamp;P1;durP1;ratioP1;P2;durP2;ratioP2
23360;SDS011;11852;50.082;18.554;2022-12-29T00:00:21;17.6;;;9.0;;
23360;SDS011;11852;50.082;18.554;2022-12-29T00:01:28;17.3;;;8.9;;
23360;SDS011;11852;50.082;18.554;2022-12-29T00:02:35;16.5;;;9.1;;
23360;SDS011;11852;50.082;18.554;2022-12-29T00:03:45;16.4;;;8.6;;
23360;SDS011;11852;50.082;18.554;2022-12-29T00:04:49;15.8;;;8.2;;
23360;SDS011;11852;50.082;18.554;2022-12-29T00:05:57;18.0;;;8.2;;
23360;SDS011;11852;50.082;18.554;2022-12-29T00:07:04;18.2;;;9.0;;
23360;SDS011;11852;50.082;18.554;2022-12-29T00:08:11;17.0;;;9.3;;
23360;SDS011;11852;50.082;18.554;2022-12-29T00:09:18;15.7;;;8.2;;
23360;SDS011;11852;50.082;18.554;2022-12-29T00:10:25;14.6;;;8.1;;
23360;SDS011;11852;50.082;18.554;2022-12-29T00:11:33;19.1;;;9.6;;
23360;SDS011;11852;50.082;18.554;2022-12-29T00:12:44;18.3;;;8.8;;
23360;SDS011;11852;50.082;18.554;2022-12-29T00:13:57;16.7;;;9.3;;
23360;SDS011;11852;50.082;18.554;2022-12-29T00:15:09;17.5;;;9.7;;
23360;SDS011;11852;50.082;18.554;2022-12-29T00:16:16;20.4;;;11.0;;
23360;SDS011;11852;50.082;18.554;2022-12-29T00:17:23;20.2;;;10.7;;
23360;SDS011;11852;50.082;18.554;2022-12-29T00:18:30;20.9;;;10.7;;
23360;SDS011;11852;50.082;18.554;2022-12-29T00:19:42;21.6;;;11.5;;
23360;SDS011;11852;50.082;18.554;2022-12-29T00:20:55;18.2;;;10.2;;
23360;SDS011;11852;50.082;18.554;2022-12-29T00:22:10;20.5;;;10.5;;
23360;SDS011;11852;50.082;18.554;2022-12-29T00:23:21;18.2;;;9.7;;
23360;SDS011;11852;50.082;18.554;2022-12-29T00:24:34;16.4;;;9.4;;
23360;SDS011;11852;50.082;18.554;2022-12-29T00:25:46;16.8;;;9.1;;
23360;SDS011;11852;50.082;18.554;2022-12-29T00:28:14;13.4;;;7.2;;
23360;SDS011;11852;50.082;18.554;2022-12-29T00:29:27;11.0;;;6.1;;
23360;SDS011;11852;50.082;18.554;2022-12-29T00:30:38;12.4;;;7.0;;
23360;SDS011;11852;50.082;18.554;2022-12-29T00:31:51;12.0;;;6.0;;
23360;SDS011;11852;50.082;18.554;2022-12-29T00:34:23;11.7;;;6.3;;
23360;SDS011;11852;50.082;18.554;2022-12-29T00:36:43;12.7;;;6.8;;
23360;SDS011;11852;50.082;18.554;2022-12-29T00:37:55;13.3;;;6.4;;
23360;SDS011;11852;50.082;18.554;2022-12-29T00:39:09;13.2;;;6.3;;
23360;SDS011;11852;50.082;18.554;2022-12-29T00:40:20;12.0;;;6.6;;
23360;SDS011;11852;50.082;18.554;2022-12-29T00:41:32;14.3;;;7.3;;
23360;SDS011;11852;50.082;18.554;2022-12-29T00:42:44;13.7;;;7.0;;
23360;SDS011;11852;50.082;18.554;2022-12-29T00:43:56;14.1;;;7.0;;
23360;SDS011;11852;50.082;18.554;2022-12-29T00:45:04;12.8;;;6.7;;
23360;SDS011;11852;50.082;18.554;2022-12-29T00:46:11;12.0;;;6.1;;
23360;SDS011;11852;50.082;18.554;2022-12-29T00:47:18;13.6;;;6.5;;
23360;SDS011;11852;50.082;18.554;2022-12-29T00:48:30;10.5;;;6.0;;
23360;SDS011;11852;50.082;18.554;2022-12-29T00:49:37;11.0;;;5.9;;
23360;SDS011;11852;50.082;18.554;2022-12-29T00:50:45;11.3;;;6.5;;
23360;SDS011;11852;50.082;18.554;2022-12-29T00:51:52;11.0;;;5.6;;
23360;SDS011;11852;50.082;18.554;2022-12-29T00:52:59;12.1;;;6.0;;
23360;SDS011;11852;50.082;18.554;2022-12-29T00:54:06;10.7;;;5.9;;
23360;SDS011;11852;50.082;18.554;2022-12-29T00:55:13;10.3;;;5.4;;
23360;SDS011;11852;50.082;18.554;2022-12-29T00:56:20;9.6;;;4.6;;
23360;SDS011;11852;50.082;18.554;2022-12-29T00:57:27;10.9;;;5.2;;
23360;SDS011;11852;50.082;18.554;2022-12-29T00:58:34;9.0;;;5.2;;
23360;SDS011;11852;50.082;18.554;2022-12-29T00:59:42;10.9;;;6.0;;
23360;SDS011;11852;50.082;18.554;2022-12-29T01:00:49;11.5;;;5.7;;
23360;SDS011;11852;50.082;18.554;2022-12-29T01:01:56;10.3;;;5.6;;
23360;SDS011;11852;50.082;18.554;2022-12-29T01:03:03;11.3;;;5.9;;
23360;SDS011;11852;50.082;18.554;2022-12-29T01:04:11;11.6;;;6.0;;
23360;SDS011;11852;50.082;18.554;2022-12-29T01:05:18;11.0;;;6.9;;
23360;SDS011;11852;50.082;18.554;2022-12-29T01:06:25;12.1;;;5.8;;
23360;SDS011;11852;50.082;18.554;2022-12-29T01:07:32;13.5;;;6.1;;
23360;SDS011;11852;50.082;18.554;2022-12-29T01:08:39;11.4;;;5.8;;
23360;SDS011;11852;50.082;18.554;2022-12-29T01:09:51;10.9;;;6.2;;
23360;SDS011;11852;50.082;18.554;2022-12-29T01:12:14;14.4;;;7.5;;
23360;SDS011;11852;50.082;18.554;2022-12-29T01:13:22;13.3;;;7.0;;
23360;SDS011;11852;50.082;18.554;2022-12-29T01:14:28;16.0;;;7.7;;
23360;SDS011;11852;50.082;18.554;2022-12-29T01:15:36;14.1;;;7.2;;
23360;SDS011;11852;50.082;18.554;2022-12-29T01:16:43;13.8;;;7.1;;
23360;SDS011;11852;50.082;18.554;2022-12-29T01:17:50;14.2;;;6.9;;
23360;SDS011;11852;50.082;18.554;2022-12-29T01:18:57;16.0;;;7.6;;
23360;SDS011;11852;50.082;18.554;2022-12-29T01:20:05;13.2;;;7.0;;
23360;SDS011;11852;50.082;18.554;2022-12-29T01:21:12;13.7;;;6.4;;
23360;SDS011;11852;50.082;18.554;2022-12-29T01:22:19;12.4;;;6.3;;
23360;SDS011;11852;50.082;18.554;2022-12-29T01:23:26;12.6;;;6.6;;
23360;SDS011;11852;50.082;18.554;2022-12-29T01:24:34;12.6;;;6.3;;
23360;SDS011;11852;50.082;18.554;2022-12-29T01:25:41;13.4;;;6.5;;
23360;SDS011;11852;50.082;18.554;2022-12-29T01:26:48;13.0;;;6.2;;
23360;SDS011;11852;50.082;18.554;2022-12-29T01:27:55;12.1;;;6.4;;
23360;SDS011;11852;50.082;18.554;2022-12-29T01:29:02;12.5;;;6.2;;
23360;SDS011;11852;50.082;18.554;2022-12-29T01:30:09;13.1;;;6.2;;
23360;SDS011;11852;50.082;18.554;2022-12-29T01:31:16;12.7;;;6.9;;
23360;SDS011;11852;50.082;18.554;2022-12-29T01:32:24;12.8;;;6.2;;
23360;SDS011;11852;50.082;18.554;2022-12-29T01:33:31;12.2;;;6.4;;
23360;SDS011;11852;50.082;18.554;2022-12-29T01:34:38;13.6;;;5.9;;
23360;SDS011;11852;50.082;18.554;2022-12-29T01:35:45;13.4;;;6.5;;
23360;SDS011;11852;50.082;18.554;2022-12-29T01:36:52;13.1;;;6.3;;
23360;SDS011;11852;50.082;18.554;2022-12-29T01:37:59;11.1;;;5.9;;
23360;SDS011;11852;50.082;18.554;2022-12-29T01:39:06;11.2;;;6.2;;
23360;SDS011;11852;50.082;18.554;2022-12-29T01:40:13;12.1;;;5.9;;
23360;SDS011;11852;50.082;18.554;2022-12-29T01:41:21;11.3;;;5.9;;
23360;SDS011;11852;50.082;18.554;2022-12-29T01:42:28;11.5;;;6.2;;
23360;SDS011;11852;50.082;18.554;2022-12-29T01:44:56;13.3;;;6.9;;
23360;SDS011;11852;50.082;18.554;2022-12-29T01:46:02;12.1;;;6.1;;
23360;SDS011;11852;50.082;18.554;2022-12-29T01:47:09;12.5;;;7.2;;
23360;SDS011;11852;50.082;18.554;2022-12-29T01:48:17;13.7;;;6.7;;
23360;SDS011;11852;50.082;18.554;2022-12-29T01:49:24;12.5;;;7.2;;
23360;SDS011;11852;50.082;18.554;2022-12-29T01:50:50;13.5;;;7.0;;
23360;SDS011;11852;50.082;18.554;2022-12-29T01:54:12;13.0;;;7.1;;
23360;SDS011;11852;50.082;18.554;2022-12-29T01:55:18;13.6;;;7.2;;
23360;SDS011;11852;50.082;18.554;2022-12-29T01:56:25;15.2;;;7.8;;
23360;SDS011;11852;50.082;18.554;2022-12-29T01:57:34;15.4;;;7.8;;
23360;SDS011;11852;50.082;18.554;2022-12-29T01:58:41;16.8;;;8.8;;
23360;SDS011;11852;50.082;18.554;2022-12-29T01:59:51;17.3;;;8.9;;
23360;SDS011;11852;50.082;18.554;2022-12-29T02:00:56;14.3;;;7.3;;
23360;SDS011;11852;50.082;18.554;2022-12-29T02:02:04;14.9;;;7.9;;
23360;SDS011;11852;50.082;18.554;2022-12-29T02:03:11;13.8;;;7.2;;
23360;SDS011;11852;50.082;18.554;2022-12-29T02:04:18;12.5;;;6.9;;
23360;SDS011;11852;50.082;18.554;2022-12-29T02:06:46;12.1;;;6.3;;
23360;SDS011;11852;50.082;18.554;2022-12-29T02:07:50;10.6;;;6.2;;
23360;SDS011;11852;50.082;18.554;2022-12-29T02:08:57;10.8;;;6.0;;
23360;SDS011;11852;50.082;18.554;2022-12-29T02:10:04;9.5;;;5.8;;
23360;SDS011;11852;50.082;18.554;2022-12-29T02:11:11;10.4;;;5.7;;
23360;SDS011;11852;50.082;18.554;2022-12-29T02:12:19;10.1;;;6.1;;
23360;SDS011;11852;50.082;18.554;2022-12-29T02:13:27;10.0;;;5.6;;
23360;SDS011;11852;50.082;18.554;2022-12-29T02:14:33;11.5;;;5.9;;
23360;SDS011;11852;50.082;18.554;2022-12-29T02:15:47;9.7;;;6.2;;
23360;SDS011;11852;50.082;18.554;2022-12-29T02:30:48;12.4;;;6.7;;
23360;SDS011;11852;50.082;18.554;2022-12-29T02:31:55;11.9;;;6.4;;
23360;SDS011;11852;50.082;18.554;2022-12-29T02:34:10;14.1;;;7.5;;
23360;SDS011;11852;50.082;18.554;2022-12-29T02:35:17;14.3;;;7.1;;
23360;SDS011;11852;50.082;18.554;2022-12-29T02:42:31;10.3;;;5.6;;
23360;SDS011;11852;50.082;18.554;2022-12-29T02:47:24;9.2;;;5.0;;
23360;SDS011;11852;50.082;18.554;2022-12-29T02:48:32;9.1;;;5.1;;
23360;SDS011;11852;50.082;18.554;2022-12-29T02:49:43;9.3;;;4.9;;
23360;SDS011;11852;50.082;18.554;2022-12-29T02:52:00;8.8;;;4.9;;
23360;SDS011;11852;50.082;18.554;2022-12-29T02:53:06;8.0;;;4.5;;
23360;SDS011;11852;50.082;18.554;2022-12-29T02:54:18;7.9;;;4.5;;
23360;SDS011;11852;50.082;18.554;2022-12-29T02:55:24;8.7;;;5.0;;
23360;SDS011;11852;50.082;18.554;2022-12-29T02:56:31;8.8;;;4.4;;
23360;SDS011;11852;50.082;18.554;2022-12-29T02:57:39;9.6;;;5.1;;
23360;SDS011;11852;50.082;18.554;2022-12-29T02:58:46;8.4;;;4.8;;
23360;SDS011;11852;50.082;18.554;2022-12-29T02:59:57;11.0;;;5.1;;
23360;SDS011;11852;50.082;18.554;2022-12-29T03:01:11;10.6;;;5.6;;
23360;SDS011;11852;50.082;18.554;2022-12-29T03:05:02;10.2;;;5.9;;
23360;SDS011;11852;50.082;18.554;2022-12-29T03:09:52;8.2;;;4.7;;
23360;SDS011;11852;50.082;18.554;2022-12-29T03:11:00;8.4;;;4.6;;
23360;SDS011;11852;50.082;18.554;2022-12-29T03:14:55;9.3;;;5.4;;
23360;SDS011;11852;50.082;18.554;2022-12-29T03:16:07;8.5;;;4.9;;
23360;SDS011;11852;50.082;18.554;2022-12-29T03:17:15;9.6;;;5.2;;
23360;SDS011;11852;50.082;18.554;2022-12-29T03:18:20;9.1;;;5.2;;
23360;SDS011;11852;50.082;18.554;2022-12-29T03:20:50;10.5;;;5.7;;
23360;SDS011;11852;50.082;18.554;2022-12-29T03:22:02;11.1;;;5.5;;
23360;SDS011;11852;50.082;18.554;2022-12-29T03:23:08;12.1;;;5.8;;
23360;SDS011;11852;50.082;18.554;2022-12-29T03:24:15;11.8;;;5.8;;
23360;SDS011;11852;50.082;18.554;2022-12-29T03:25:23;11.0;;;5.7;;
23360;SDS011;11852;50.082;18.554;2022-12-29T03:26:29;10.8;;;5.5;;
23360;SDS011;11852;50.082;18.554;2022-12-29T03:28:22;11.9;;;5.9;;
23360;SDS011;11852;50.082;18.554;2022-12-29T03:28:50;10.9;;;5.6;;
23360;SDS011;11852;50.082;18.554;2022-12-29T03:29:57;11.1;;;5.8;;
23360;SDS011;11852;50.082;18.554;2022-12-29T03:31:03;11.3;;;6.1;;
23360;SDS011;11852;50.082;18.554;2022-12-29T03:32:10;11.1;;;5.7;;
23360;SDS011;11852;50.082;18.554;2022-12-29T03:33:19;11.0;;;6.4;;
23360;SDS011;11852;50.082;18.554;2022-12-29T03:34:24;11.3;;;5.9;;
23360;SDS011;11852;50.082;18.554;2022-12-29T03:35:33;12.0;;;6.3;;
23360;SDS011;11852;50.082;18.554;2022-12-29T03:36:42;15.1;;;7.1;;
23360;SDS011;11852;50.082;18.554;2022-12-29T03:39:06;11.4;;;6.2;;
23360;SDS011;11852;50.082;18.554;2022-12-29T03:40:10;14.9;;;7.2;;
23360;SDS011;11852;50.082;18.554;2022-12-29T03:41:19;15.2;;;6.9;;
23360;SDS011;11852;50.082;18.554;2022-12-29T03:42:25;11.5;;;6.1;;
23360;SDS011;11852;50.082;18.554;2022-12-29T03:43:32;15.5;;;7.3;;
23360;SDS011;11852;50.082;18.554;2022-12-29T03:44:40;12.1;;;5.9;;
23360;SDS011;11852;50.082;18.554;2022-12-29T03:45:46;10.8;;;5.8;;
23360;SDS011;11852;50.082;18.554;2022-12-29T03:46:53;12.4;;;6.3;;
23360;SDS011;11852;50.082;18.554;2022-12-29T03:48:01;11.7;;;6.4;;
23360;SDS011;11852;50.082;18.554;2022-12-29T03:49:08;11.9;;;6.3;;
23360;SDS011;11852;50.082;18.554;2022-12-29T03:50:15;12.7;;;6.2;;
23360;SDS011;11852;50.082;18.554;2022-12-29T03:51:22;12.4;;;6.6;;
23360;SDS011;11852;50.082;18.554;2022-12-29T03:52:29;13.1;;;6.3;;
23360;SDS011;11852;50.082;18.554;2022-12-29T03:53:36;14.8;;;7.8;;
23360;SDS011;11852;50.082;18.554;2022-12-29T03:54:46;15.0;;;7.3;;
23360;SDS011;11852;50.082;18.554;2022-12-29T03:55:53;14.9;;;7.4;;
23360;SDS011;11852;50.082;18.554;2022-12-29T03:57:01;14.4;;;7.8;;
23360;SDS011;11852;50.082;18.554;2022-12-29T03:58:08;14.1;;;7.6;;
23360;SDS011;11852;50.082;18.554;2022-12-29T03:59:15;13.0;;;6.5;;
23360;SDS011;11852;50.082;18.554;2022-12-29T04:00:22;14.1;;;6.9;;
23360;SDS011;11852;50.082;18.554;2022-12-29T04:01:29;13.9;;;7.1;;
23360;SDS011;11852;50.082;18.554;2022-12-29T04:02:36;13.1;;;6.8;;
23360;SDS011;11852;50.082;18.554;2022-12-29T04:03:43;12.9;;;6.7;;
23360;SDS011;11852;50.082;18.554;2022-12-29T04:04:50;12.9;;;6.9;;
23360;SDS011;11852;50.082;18.554;2022-12-29T04:05:58;11.8;;;6.5;;
23360;SDS011;11852;50.082;18.554;2022-12-29T04:07:05;12.0;;;6.7;;
23360;SDS011;11852;50.082;18.554;2022-12-29T04:08:12;12.2;;;6.7;;
23360;SDS011;11852;50.082;18.554;2022-12-29T04:09:19;10.2;;;5.8;;
23360;SDS011;11852;50.082;18.554;2022-12-29T04:10:26;10.3;;;6.2;;
23360;SDS011;11852;50.082;18.554;2022-12-29T04:11:34;10.8;;;5.7;;
23360;SDS011;11852;50.082;18.554;2022-12-29T04:12:41;11.5;;;6.4;;
23360;SDS011;11852;50.082;18.554;2022-12-29T04:13:48;10.2;;;5.7;;
23360;SDS011;11852;50.082;18.554;2022-12-29T04:14:55;11.2;;;6.0;;
23360;SDS011;11852;50.082;18.554;2022-12-29T04:16:02;12.3;;;5.3;;
23360;SDS011;11852;50.082;18.554;2022-12-29T04:17:10;9.7;;;5.0;;
23360;SDS011;11852;50.082;18.554;2022-12-29T04:18:17;11.5;;;5.2;;
23360;SDS011;11852;50.082;18.554;2022-12-29T04:19:24;11.5;;;5.6;;
23360;SDS011;11852;50.082;18.554;2022-12-29T04:20:36;11.0;;;5.4;;
23360;SDS011;11852;50.082;18.554;2022-12-29T04:21:43;10.9;;;5.6;;
23360;SDS011;11852;50.082;18.554;2022-12-29T04:22:57;10.9;;;5.5;;
23360;SDS011;11852;50.082;18.554;2022-12-29T04:23:58;8.9;;;5.1;;
23360;SDS011;11852;50.082;18.554;2022-12-29T04:25:05;11.4;;;5.7;;
23360;SDS011;11852;50.082;18.554;2022-12-29T04:26:12;11.0;;;5.6;;
23360;SDS011;11852;50.082;18.554;2022-12-29T04:27:19;12.6;;;5.8;;
23360;SDS011;11852;50.082;18.554;2022-12-29T04:28:27;11.3;;;6.0;;
23360;SDS011;11852;50.082;18.554;2022-12-29T04:29:34;11.0;;;6.2;;
23360;SDS011;11852;50.082;18.554;2022-12-29T04:30:41;12.9;;;6.5;;
23360;SDS011;11852;50.082;18.554;2022-12-29T04:31:48;13.3;;;6.6;;
23360;SDS011;11852;50.082;18.554;2022-12-29T04:32:55;11.1;;;6.1;;
23360;SDS011;11852;50.082;18.554;2022-12-29T04:34:02;11.3;;;5.8;;
23360;SDS011;11852;50.082;18.554;2022-12-29T04:35:09;9.5;;;5.4;;
23360;SDS011;11852;50.082;18.554;2022-12-29T04:36:16;9.7;;;5.6;;
23360;SDS011;11852;50.082;18.554;2022-12-29T04:37:23;9.9;;;5.4;;
23360;SDS011;11852;50.082;18.554;2022-12-29T04:38:30;12.8;;;6.2;;
23360;SDS011;11852;50.082;18.554;2022-12-29T04:39:38;10.4;;;5.7;;
23360;SDS011;11852;50.082;18.554;2022-12-29T04:40:45;13.1;;;6.4;;
23360;SDS011;11852;50.082;18.554;2022-12-29T04:41:52;12.4;;;5.7;;
23360;SDS011;11852;50.082;18.554;2022-12-29T04:42:59;15.4;;;7.4;;
23360;SDS011;11852;50.082;18.554;2022-12-29T04:44:06;12.8;;;7.1;;
23360;SDS011;11852;50.082;18.554;2022-12-29T04:45:13;14.3;;;7.5;;
23360;SDS011;11852;50.082;18.554;2022-12-29T04:46:20;13.4;;;6.2;;
23360;SDS011;11852;50.082;18.554;2022-12-29T04:47:28;14.4;;;7.1;;
23360;SDS011;11852;50.082;18.554;2022-12-29T04:48:35;14.6;;;7.2;;
23360;SDS011;11852;50.082;18.554;2022-12-29T04:49:42;12.4;;;7.0;;
23360;SDS011;11852;50.082;18.554;2022-12-29T04:50:49;13.6;;;6.7;;
23360;SDS011;11852;50.082;18.554;2022-12-29T04:51:56;13.1;;;7.0;;
23360;SDS011;11852;50.082;18.554;2022-12-29T04:53:04;13.5;;;6.5;;
23360;SDS011;11852;50.082;18.554;2022-12-29T04:54:10;11.0;;;6.0;;
23360;SDS011;11852;50.082;18.554;2022-12-29T04:55:18;13.0;;;6.3;;
23360;SDS011;11852;50.082;18.554;2022-12-29T04:56:24;12.0;;;6.2;;
23360;SDS011;11852;50.082;18.554;2022-12-29T04:57:32;11.2;;;6.1;;
23360;SDS011;11852;50.082;18.554;2022-12-29T04:58:39;9.8;;;5.2;;
23360;SDS011;11852;50.082;18.554;2022-12-29T04:59:46;10.3;;;5.8;;
23360;SDS011;11852;50.082;18.554;2022-12-29T05:00:53;13.3;;;7.1;;
23360;SDS011;11852;50.082;18.554;2022-12-29T05:02:00;11.1;;;6.0;;
23360;SDS011;11852;50.082;18.554;2022-12-29T05:03:07;13.7;;;6.9;;
23360;SDS011;11852;50.082;18.554;2022-12-29T05:04:14;12.4;;;6.2;;
23360;SDS011;11852;50.082;18.554;2022-12-29T05:05:22;11.4;;;5.7;;
23360;SDS011;11852;50.082;18.554;2022-12-29T05:06:29;13.0;;;6.1;;
23360;SDS011;11852;50.082;18.554;2022-12-29T05:07:36;10.7;;;5.3;;
23360;SDS011;11852;50.082;18.554;2022-12-29T05:08:43;12.8;;;6.3;;
23360;SDS011;11852;50.082;18.554;2022-12-29T05:09:50;11.2;;;6.1;;
23360;SDS011;11852;50.082;18.554;2022-12-29T05:10:57;12.5;;;5.8;;
23360;SDS011;11852;50.082;18.554;2022-12-29T05:12:04;12.7;;;6.3;;
23360;SDS011;11852;50.082;18.554;2022-12-29T05:13:12;12.4;;;6.0;;
23360;SDS011;11852;50.082;18.554;2022-12-29T05:14:18;11.9;;;5.3;;
23360;SDS011;11852;50.082;18.554;2022-12-29T05:15:26;13.1;;;6.0;;
23360;SDS011;11852;50.082;18.554;2022-12-29T05:16:33;11.7;;;6.0;;
23360;SDS011;11852;50.082;18.554;2022-12-29T05:18:05;11.7;;;6.0;;
23360;SDS011;11852;50.082;18.554;2022-12-29T05:19:12;11.0;;;5.6;;
23360;SDS011;11852;50.082;18.554;2022-12-29T05:20:19;10.2;;;5.7;;
23360;SDS011;11852;50.082;18.554;2022-12-29T05:21:26;9.9;;;5.5;;
23360;SDS011;11852;50.082;18.554;2022-12-29T05:22:33;9.5;;;5.4;;
23360;SDS011;11852;50.082;18.554;2022-12-29T05:23:40;9.3;;;4.7;;
23360;SDS011;11852;50.082;18.554;2022-12-29T05:24:47;9.4;;;5.4;;
23360;SDS011;11852;50.082;18.554;2022-12-29T05:25:54;10.1;;;5.9;;
23360;SDS011;11852;50.082;18.554;2022-12-29T05:27:01;9.5;;;5.3;;
23360;SDS011;11852;50.082;18.554;2022-12-29T05:28:08;9.7;;;5.2;;
23360;SDS011;11852;50.082;18.554;2022-12-29T05:29:15;9.8;;;5.7;;
23360;SDS011;11852;50.082;18.554;2022-12-29T05:30:21;9.8;;;5.8;;
23360;SDS011;11852;50.082;18.554;2022-12-29T05:31:29;10.9;;;5.8;;
23360;SDS011;11852;50.082;18.554;2022-12-29T05:32:36;10.2;;;5.7;;
23360;SDS011;11852;50.082;18.554;2022-12-29T05:33:42;10.6;;;6.0;;
23360;SDS011;11852;50.082;18.554;2022-12-29T05:34:49;12.0;;;6.4;;
23360;SDS011;11852;50.082;18.554;2022-12-29T05:35:56;12.3;;;6.8;;
23360;SDS011;11852;50.082;18.554;2022-12-29T05:37:03;13.7;;;7.3;;
23360;SDS011;11852;50.082;18.554;2022-12-29T05:38:10;13.7;;;7.4;;
23360;SDS011;11852;50.082;18.554;2022-12-29T05:39:17;13.3;;;7.2;;
23360;SDS011;11852;50.082;18.554;2022-12-29T05:40:24;14.0;;;7.3;;
23360;SDS011;11852;50.082;18.554;2022-12-29T05:41:32;13.6;;;7.4;;
23360;SDS011;11852;50.082;18.554;2022-12-29T05:42:38;13.6;;;7.1;;
23360;SDS011;11852;50.082;18.554;2022-12-29T05:43:46;12.0;;;6.7;;
23360;SDS011;11852;50.082;18.554;2022-12-29T05:44:52;12.1;;;6.6;;
23360;SDS011;11852;50.082;18.554;2022-12-29T05:45:59;13.4;;;7.4;;
23360;SDS011;11852;50.082;18.554;2022-12-29T05:47:06;13.9;;;6.9;;
23360;SDS011;11852;50.082;18.554;2022-12-29T05:48:13;16.0;;;7.5;;
23360;SDS011;11852;50.082;18.554;2022-12-29T05:49:21;13.5;;;7.2;;
23360;SDS011;11852;50.082;18.554;2022-12-29T05:50:28;16.4;;;8.0;;
23360;SDS011;11852;50.082;18.554;2022-12-29T05:51:35;14.1;;;8.0;;
23360;SDS011;11852;50.082;18.554;2022-12-29T05:52:42;14.9;;;7.4;;
23360;SDS011;11852;50.082;18.554;2022-12-29T05:53:49;16.5;;;7.5;;
23360;SDS011;11852;50.082;18.554;2022-12-29T05:54:56;14.0;;;7.4;;
23360;SDS011;11852;50.082;18.554;2022-12-29T05:56:03;14.6;;;7.6;;
23360;SDS011;11852;50.082;18.554;2022-12-29T05:57:10;13.7;;;7.6;;
23360;SDS011;11852;50.082;18.554;2022-12-29T05:58:17;13.1;;;7.0;;
23360;SDS011;11852;50.082;18.554;2022-12-29T05:59:25;14.0;;;7.5;;
23360;SDS011;11852;50.082;18.554;2022-12-29T06:00:32;12.8;;;7.5;;
23360;SDS011;11852;50.082;18.554;2022-12-29T06:01:39;14.0;;;7.1;;
23360;SDS011;11852;50.082;18.554;2022-12-29T06:02:46;14.0;;;8.0;;
23360;SDS011;11852;50.082;18.554;2022-12-29T06:03:53;16.2;;;8.4;;
23360;SDS011;11852;50.082;18.554;2022-12-29T06:05:00;15.7;;;8.0;;
23360;SDS011;11852;50.082;18.554;2022-12-29T06:06:07;15.1;;;8.5;;
23360;SDS011;11852;50.082;18.554;2022-12-29T06:07:14;17.2;;;9.0;;
23360;SDS011;11852;50.082;18.554;2022-12-29T06:08:21;17.8;;;9.4;;
23360;SDS011;11852;50.082;18.554;2022-12-29T06:09:28;15.5;;;8.4;;
23360;SDS011;11852;50.082;18.554;2022-12-29T06:10:35;16.1;;;9.2;;
23360;SDS011;11852;50.082;18.554;2022-12-29T06:11:42;13.4;;;7.0;;
23360;SDS011;11852;50.082;18.554;2022-12-29T06:12:50;14.3;;;8.1;;
23360;SDS011;11852;50.082;18.554;2022-12-29T06:13:56;15.3;;;8.3;;
23360;SDS011;11852;50.082;18.554;2022-12-29T06:15:04;15.6;;;8.9;;
23360;SDS011;11852;50.082;18.554;2022-12-29T06:16:11;18.9;;;9.2;;
23360;SDS011;11852;50.082;18.554;2022-12-29T06:17:18;17.7;;;9.0;;
23360;SDS011;11852;50.082;18.554;2022-12-29T06:18:25;15.9;;;8.9;;
23360;SDS011;11852;50.082;18.554;2022-12-29T06:19:32;16.5;;;9.4;;
23360;SDS011;11852;50.082;18.554;2022-12-29T06:20:39;17.3;;;8.4;;
23360;SDS011;11852;50.082;18.554;2022-12-29T06:21:47;18.6;;;8.6;;
23360;SDS011;11852;50.082;18.554;2022-12-29T06:22:54;17.9;;;9.1;;
23360;SDS011;11852;50.082;18.554;2022-12-29T06:24:01;17.6;;;9.2;;
23360;SDS011;11852;50.082;18.554;2022-12-29T06:25:08;17.0;;;9.3;;
23360;SDS011;11852;50.082;18.554;2022-12-29T06:26:15;16.4;;;8.5;;
23360;SDS011;11852;50.082;18.554;2022-12-29T06:27:22;13.3;;;8.3;;
23360;SDS011;11852;50.082;18.554;2022-12-29T06:28:29;16.8;;;9.5;;
23360;SDS011;11852;50.082;18.554;2022-12-29T06:29:36;17.2;;;8.7;;
23360;SDS011;11852;50.082;18.554;2022-12-29T06:30:44;15.2;;;8.3;;
23360;SDS011;11852;50.082;18.554;2022-12-29T06:31:51;16.3;;;9.3;;
23360;SDS011;11852;50.082;18.554;2022-12-29T06:32:58;14.7;;;7.9;;
23360;SDS011;11852;50.082;18.554;2022-12-29T06:34:05;15.8;;;9.1;;
23360;SDS011;11852;50.082;18.554;2022-12-29T06:35:12;15.3;;;8.9;;
23360;SDS011;11852;50.082;18.554;2022-12-29T06:36:19;17.2;;;9.4;;
23360;SDS011;11852;50.082;18.554;2022-12-29T06:37:26;16.6;;;9.5;;
23360;SDS011;11852;50.082;18.554;2022-12-29T06:38:33;15.9;;;9.4;;
23360;SDS011;11852;50.082;18.554;2022-12-29T06:39:40;16.3;;;9.4;;
23360;SDS011;11852;50.082;18.554;2022-12-29T06:40:47;17.6;;;10.4;;
23360;SDS011;11852;50.082;18.554;2022-12-29T06:41:54;17.1;;;10.5;;
23360;SDS011;11852;50.082;18.554;2022-12-29T06:43:01;17.6;;;9.3;;
23360;SDS011;11852;50.082;18.554;2022-12-29T06:44:08;16.2;;;10.0;;
23360;SDS011;11852;50.082;18.554;2022-12-29T06:45:15;18.2;;;9.7;;
23360;SDS011;11852;50.082;18.554;2022-12-29T06:46:22;18.7;;;10.1;;
23360;SDS011;11852;50.082;18.554;2022-12-29T06:47:29;16.3;;;9.4;;
23360;SDS011;11852;50.082;18.554;2022-12-29T06:48:36;14.7;;;9.0;;
23360;SDS011;11852;50.082;18.554;2022-12-29T06:49:43;17.2;;;9.0;;
23360;SDS011;11852;50.082;18.554;2022-12-29T06:50:50;18.6;;;9.6;;
23360;SDS011;11852;50.082;18.554;2022-12-29T06:51:56;17.0;;;9.1;;
23360;SDS011;11852;50.082;18.554;2022-12-29T06:53:04;21.1;;;10.4;;
23360;SDS011;11852;50.082;18.554;2022-12-29T06:54:11;19.4;;;10.1;;
23360;SDS011;11852;50.082;18.554;2022-12-29T06:55:18;17.8;;;9.1;;
23360;SDS011;11852;50.082;18.554;2022-12-29T06:56:25;17.1;;;8.8;;
23360;SDS011;11852;50.082;18.554;2022-12-29T06:57:32;15.4;;;8.6;;
23360;SDS011;11852;50.082;18.554;2022-12-29T06:58:39;15.2;;;8.5;;
23360;SDS011;11852;50.082;18.554;2022-12-29T06:59:46;15.1;;;8.0;;
23360;SDS011;11852;50.082;18.554;2022-12-29T07:00:52;17.4;;;8.4;;
23360;SDS011;11852;50.082;18.554;2022-12-29T07:02:00;13.5;;;7.8;;
23360;SDS011;11852;50.082;18.554;2022-12-29T07:03:07;13.3;;;7.9;;
23360;SDS011;11852;50.082;18.554;2022-12-29T07:04:14;13.9;;;7.5;;
23360;SDS011;11852;50.082;18.554;2022-12-29T07:05:21;13.6;;;7.6;;
23360;SDS011;11852;50.082;18.554;2022-12-29T07:06:28;14.2;;;7.6;;
23360;SDS011;11852;50.082;18.554;2022-12-29T07:07:35;11.6;;;6.8;;
23360;SDS011;11852;50.082;18.554;2022-12-29T07:08:42;13.8;;;7.3;;
23360;SDS011;11852;50.082;18.554;2022-12-29T07:09:49;13.4;;;7.5;;
23360;SDS011;11852;50.082;18.554;2022-12-29T07:10:56;12.5;;;7.2;;
23360;SDS011;11852;50.082;18.554;2022-12-29T07:12:03;12.6;;;7.2;;
23360;SDS011;11852;50.082;18.554;2022-12-29T07:13:10;13.0;;;7.2;;
23360;SDS011;11852;50.082;18.554;2022-12-29T07:14:17;13.7;;;7.3;;
23360;SDS011;11852;50.082;18.554;2022-12-29T07:15:24;12.6;;;7.5;;
23360;SDS011;11852;50.082;18.554;2022-12-29T07:16:31;13.5;;;7.7;;
23360;SDS011;11852;50.082;18.554;2022-12-29T07:17:39;15.5;;;8.3;;
23360;SDS011;11852;50.082;18.554;2022-12-29T07:18:45;16.3;;;8.9;;
23360;SDS011;11852;50.082;18.554;2022-12-29T07:19:53;15.5;;;8.0;;
23360;SDS011;11852;50.082;18.554;2022-12-29T07:21:00;15.9;;;7.8;;
23360;SDS011;11852;50.082;18.554;2022-12-29T07:22:07;14.8;;;8.5;;
23360;SDS011;11852;50.082;18.554;2022-12-29T07:23:14;16.1;;;8.4;;
23360;SDS011;11852;50.082;18.554;2022-12-29T07:24:21;16.1;;;9.0;;
23360;SDS011;11852;50.082;18.554;2022-12-29T07:25:28;17.2;;;9.6;;
23360;SDS011;11852;50.082;18.554;2022-12-29T07:26:35;19.0;;;10.5;;
23360;SDS011;11852;50.082;18.554;2022-12-29T07:27:42;15.9;;;8.3;;
23360;SDS011;11852;50.082;18.554;2022-12-29T07:28:49;18.8;;;10.0;;
23360;SDS011;11852;50.082;18.554;2022-12-29T07:29:56;14.2;;;8.2;;
23360;SDS011;11852;50.082;18.554;2022-12-29T07:31:04;15.3;;;8.8;;
23360;SDS011;11852;50.082;18.554;2022-12-29T07:32:10;14.8;;;8.3;;
23360;SDS011;11852;50.082;18.554;2022-12-29T07:33:17;14.5;;;7.7;;
23360;SDS011;11852;50.082;18.554;2022-12-29T07:34:24;12.7;;;7.5;;
23360;SDS011;11852;50.082;18.554;2022-12-29T07:35:33;15.2;;;8.1;;